createdAt,value
2018-11-10T00:01:54.609Z,27.37
2018-11-10T00:04:24.174Z,27.10
2018-11-10T00:06:54.513Z,26.47
2018-11-10T00:09:24.752Z,27.87
2018-11-10T00:11:54.768Z,28.87
2018-11-10T00:14:24.784Z,25.57
2018-11-10T00:16:54.908Z,26.40
2018-11-10T00:19:24.601Z,30.03
2018-11-10T00:21:53.916Z,27.37
2018-11-10T00:24:23.842Z,24.97
2018-11-10T00:26:53.890Z,25.17
2018-11-10T00:29:23.813Z,25.93
2018-11-10T00:31:52.691Z,27.03
2018-11-10T00:34:22.421Z,24.97
2018-11-10T00:36:52.287Z,26.50
2018-11-10T00:39:22.506Z,24.70
2018-11-10T00:41:51.494Z,26.37
2018-11-10T00:44:20.546Z,26.90
2018-11-10T00:46:49.278Z,26.80
2018-11-10T00:49:18.207Z,26.77
2018-11-10T00:51:47.884Z,27.10
2018-11-10T00:54:17.393Z,24.47
2018-11-10T00:56:46.650Z,25.50
2018-11-10T00:59:15.432Z,31.57
2018-11-10T01:01:44.419Z,25.97
2018-11-10T01:04:13.712Z,28.93
2018-11-10T01:06:43.051Z,26.27
2018-11-10T01:09:12.421Z,27.87
2018-11-10T01:11:41.336Z,24.20
2018-11-10T01:14:11.292Z,23.53
2018-11-10T01:16:40.156Z,24.83
2018-11-10T01:19:09.099Z,24.37
2018-11-10T01:21:38.190Z,26.27
2018-11-10T01:24:07.106Z,25.43
2018-11-10T01:26:36.857Z,29.67
2018-11-10T01:29:06.488Z,25.87
2018-11-10T01:31:36.297Z,24.67
2018-11-10T01:34:05.355Z,21.17
2018-11-10T01:36:35.502Z,22.93
2018-11-10T01:39:06.138Z,22.67
2018-11-10T01:41:35.427Z,23.07
2018-11-10T01:44:04.660Z,24.63
2018-11-10T01:46:34.607Z,21.00
2018-11-10T01:49:03.907Z,23.17
2018-11-10T01:51:33.687Z,23.13
2018-11-10T01:54:03.467Z,22.97
2018-11-10T01:56:33.485Z,24.53
2018-11-10T01:59:02.251Z,22.60
2018-11-10T02:01:31.542Z,20.17
2018-11-10T02:04:00.857Z,21.17
2018-11-10T02:06:30.279Z,22.93
2018-11-10T02:09:00.435Z,21.03
2018-11-10T02:11:30.177Z,23.03
2018-11-10T02:13:59.376Z,22.07
2018-11-10T02:16:28.893Z,24.40
2018-11-10T02:18:58.287Z,23.50
2018-11-10T02:21:27.470Z,19.53
2018-11-10T02:23:56.854Z,22.07
2018-11-10T02:26:26.459Z,22.70
2018-11-10T02:28:55.688Z,21.83
2018-11-10T02:31:25.985Z,21.30
2018-11-10T02:33:55.290Z,22.43
2018-11-10T02:36:24.911Z,21.67
2018-11-10T02:38:54.603Z,23.30
2018-11-10T02:41:24.157Z,21.63
2018-11-10T02:43:53.716Z,21.67
2018-11-10T02:46:23.719Z,20.40
2018-11-10T02:48:53.564Z,21.43
2018-11-10T02:51:22.441Z,21.03
2018-11-10T02:53:50.960Z,20.37
2018-11-10T02:56:19.607Z,21.33
2018-11-10T02:58:49.289Z,22.93
2018-11-10T03:01:18.628Z,22.90
2018-11-10T03:03:47.812Z,20.07
2018-11-10T03:06:17.023Z,19.13
2018-11-10T03:08:46.368Z,20.50
2018-11-10T03:11:15.581Z,20.47
2018-11-10T03:13:45.436Z,22.77
2018-11-10T03:16:19.311Z,21.47
2018-11-10T03:18:48.655Z,19.37
2018-11-10T03:21:17.236Z,21.87
2018-11-10T03:23:47.164Z,21.33
2018-11-10T03:26:16.296Z,23.37
2018-11-10T03:28:45.713Z,19.10
2018-11-10T03:31:14.475Z,18.50
2018-11-10T03:33:44.315Z,20.57
2018-11-10T03:36:13.890Z,22.07
2018-11-10T03:38:42.856Z,20.03
2018-11-10T03:41:11.436Z,21.13
2018-11-10T03:43:39.918Z,22.03
2018-11-10T03:46:09.468Z,18.10
2018-11-10T03:48:38.364Z,19.77
2018-11-10T03:51:07.292Z,20.37
2018-11-10T03:53:36.650Z,21.70
2018-11-10T03:56:05.699Z,19.77
2018-11-10T03:58:34.643Z,17.90
2018-11-10T04:01:04.406Z,21.60
2018-11-10T04:03:33.386Z,17.27
2018-11-10T04:06:03.419Z,21.03
2018-11-10T04:08:33.318Z,18.37
2018-11-10T04:11:02.476Z,18.03
2018-11-10T04:13:31.624Z,20.03
2018-11-10T04:16:00.776Z,19.33
2018-11-10T04:18:29.766Z,18.87
2018-11-10T04:20:59.224Z,23.47
2018-11-10T04:23:28.223Z,21.70
2018-11-10T04:25:57.843Z,22.83
2018-11-10T04:28:27.111Z,20.27
2018-11-10T04:30:56.551Z,26.47
2018-11-10T04:33:25.817Z,20.63
2018-11-10T04:35:55.440Z,19.67
2018-11-10T04:38:24.523Z,21.67
2018-11-10T04:40:54.219Z,24.37
2018-11-10T04:43:24.046Z,26.50
2018-11-10T04:45:53.142Z,23.23
2018-11-10T04:48:22.470Z,23.23
2018-11-10T04:50:51.381Z,21.27
2018-11-10T04:53:21.660Z,20.83
2018-11-10T04:55:50.463Z,23.70
2018-11-10T04:58:19.593Z,23.53
2018-11-10T05:00:49.272Z,19.80
2018-11-10T05:03:19.222Z,21.60
2018-11-10T05:05:49.461Z,23.03
2018-11-10T05:08:19.616Z,20.80
2018-11-10T05:10:49.222Z,25.30
2018-11-10T05:13:18.497Z,22.23
2018-11-10T05:15:47.815Z,23.03
2018-11-10T05:18:17.196Z,22.73
2018-11-10T05:20:47.296Z,21.30
2018-11-10T05:23:15.908Z,20.33
2018-11-10T05:25:45.692Z,17.97
2018-11-10T05:28:15.063Z,22.03
2018-11-10T05:30:43.842Z,24.07
2018-11-10T05:33:15.327Z,45.03
2018-11-10T05:35:45.172Z,39.87
2018-11-10T05:38:14.805Z,23.63
2018-11-10T05:40:43.904Z,22.47
2018-11-10T05:43:13.731Z,20.67
2018-11-10T05:45:43.616Z,21.93
2018-11-10T05:48:13.300Z,19.20
2018-11-10T05:50:42.540Z,19.93
2018-11-10T05:53:12.204Z,22.00
2018-11-10T05:55:47.272Z,19.07
2018-11-10T05:58:16.719Z,19.20
2018-11-10T06:00:46.229Z,20.33
2018-11-10T06:03:16.185Z,19.97
2018-11-10T06:05:45.616Z,23.53
2018-11-10T06:08:16.048Z,24.40
2018-11-10T06:10:45.412Z,20.83
2018-11-10T06:13:17.219Z,19.27
2018-11-10T06:15:48.514Z,20.30
2018-11-10T06:18:18.134Z,21.00
2018-11-10T06:20:48.034Z,23.90
2018-11-10T06:23:18.154Z,21.43
2018-11-10T06:25:49.136Z,21.93
2018-11-10T06:28:18.764Z,19.33
2018-11-10T06:30:48.959Z,19.97
2018-11-10T06:33:18.168Z,19.80
2018-11-10T06:35:48.385Z,21.57
2018-11-10T06:38:17.447Z,25.00
2018-11-10T06:40:46.372Z,19.27
2018-11-10T06:43:15.953Z,19.87
2018-11-10T06:45:45.260Z,22.37
2018-11-10T06:48:14.097Z,21.10
2018-11-10T06:50:43.546Z,20.33
2018-11-10T06:53:12.505Z,21.13
2018-11-10T06:55:42.352Z,23.40
2018-11-10T06:58:11.892Z,21.80
2018-11-10T07:00:41.192Z,20.87
2018-11-10T07:03:10.108Z,21.97
2018-11-10T07:05:39.605Z,22.07
2018-11-10T07:08:09.469Z,20.93
2018-11-10T07:10:38.228Z,20.43
2018-11-10T07:13:07.905Z,20.37
2018-11-10T07:15:37.462Z,21.33
2018-11-10T07:18:07.378Z,23.17
2018-11-10T07:20:36.698Z,22.67
2018-11-10T07:23:06.757Z,25.80
2018-11-10T07:25:36.357Z,19.20
2018-11-10T07:28:06.069Z,18.40
2018-11-10T07:30:34.750Z,18.07
2018-11-10T07:33:04.161Z,22.30
2018-11-10T07:35:33.663Z,18.93
2018-11-10T07:38:02.672Z,21.73
2018-11-10T07:40:32.232Z,18.07
2018-11-10T07:43:01.403Z,21.50
2018-11-10T07:45:31.380Z,23.10
2018-11-10T07:48:00.697Z,19.93
2018-11-10T07:50:29.599Z,21.97
2018-11-10T07:52:59.826Z,17.03
2018-11-10T07:55:29.485Z,19.43
2018-11-10T07:57:58.807Z,23.40
2018-11-10T08:00:28.413Z,24.00
2018-11-10T08:02:58.332Z,22.03
2018-11-10T08:05:28.154Z,22.17
2018-11-10T08:07:57.566Z,19.03
2018-11-10T08:10:27.263Z,17.73
2018-11-10T08:12:56.686Z,17.73
2018-11-10T08:15:26.644Z,21.60
2018-11-10T08:17:56.486Z,19.97
2018-11-10T08:20:26.247Z,17.83
2018-11-10T08:22:56.354Z,17.33
2018-11-10T08:25:26.349Z,18.27
2018-11-10T08:27:56.650Z,18.97
2018-11-10T08:30:27.036Z,18.87
2018-11-10T08:32:57.140Z,19.97
2018-11-10T08:35:27.195Z,18.63
2018-11-10T08:37:56.154Z,20.23
2018-11-10T08:40:25.609Z,20.33
2018-11-10T08:42:55.920Z,21.77
2018-11-10T08:45:25.704Z,18.43
2018-11-10T08:47:55.445Z,17.40
2018-11-10T08:50:26.087Z,18.67
2018-11-10T08:52:55.549Z,17.73
2018-11-10T08:55:25.641Z,18.23
2018-11-10T08:57:55.591Z,17.33
2018-11-10T09:00:26.015Z,18.47
2018-11-10T09:02:56.115Z,16.63
2018-11-10T09:05:26.013Z,18.20
2018-11-10T09:07:55.733Z,16.57
2018-11-10T09:10:26.002Z,17.67
2018-11-10T09:12:56.383Z,16.33
2018-11-10T09:15:25.781Z,17.17
2018-11-10T09:17:56.156Z,18.33
2018-11-10T09:20:26.709Z,14.80
2018-11-10T09:22:56.489Z,17.70
2018-11-10T09:25:26.741Z,16.47
2018-11-10T09:27:56.694Z,18.37
2018-11-10T09:30:26.708Z,15.37
2018-11-10T09:32:55.999Z,16.03
2018-11-10T09:35:25.391Z,17.23
2018-11-10T09:37:54.579Z,16.77
2018-11-10T09:40:25.088Z,19.30
2018-11-10T09:42:55.212Z,19.93
2018-11-10T09:45:25.163Z,16.93
2018-11-10T09:47:54.484Z,18.17
2018-11-10T09:50:24.836Z,16.73
2018-11-10T09:52:55.126Z,16.90
2018-11-10T09:55:25.443Z,15.77
2018-11-10T09:57:55.309Z,15.27
2018-11-10T10:00:24.749Z,15.27
2018-11-10T10:02:54.475Z,14.27
2018-11-10T10:05:23.863Z,18.47
2018-11-10T10:07:53.448Z,13.83
2018-11-10T10:10:24.277Z,13.10
2018-11-10T10:12:54.713Z,13.87
2018-11-10T10:15:24.323Z,16.03
2018-11-10T10:17:54.304Z,16.97
2018-11-10T10:20:24.244Z,12.53
2018-11-10T10:22:54.439Z,12.40
2018-11-10T10:25:24.682Z,13.43
2018-11-10T10:27:54.093Z,13.60
2018-11-10T10:30:25.437Z,11.67
2018-11-10T10:32:55.872Z,14.10
2018-11-10T10:35:25.687Z,13.60
2018-11-10T10:37:55.035Z,16.60
2018-11-10T10:40:25.227Z,13.67
2018-11-10T10:42:55.445Z,14.53
2018-11-10T10:45:25.232Z,12.60
2018-11-10T10:47:55.079Z,14.30
2018-11-10T10:50:25.060Z,13.00
2018-11-10T10:52:55.033Z,12.27
2018-11-10T10:55:24.793Z,16.17
2018-11-10T10:57:54.806Z,11.40
2018-11-10T11:00:29.443Z,11.53
2018-11-10T11:03:04.298Z,15.60
2018-11-10T11:05:38.912Z,9.47
2018-11-10T11:08:08.961Z,13.00
2018-11-10T11:10:38.907Z,11.03
2018-11-10T11:13:08.622Z,10.17
2018-11-10T11:15:38.053Z,13.63
2018-11-10T11:18:08.049Z,11.07
2018-11-10T11:20:38.299Z,12.00
2018-11-10T11:23:09.379Z,11.17
2018-11-10T11:25:39.972Z,9.67
2018-11-10T11:28:09.315Z,12.83
2018-11-10T11:30:40.600Z,9.97
2018-11-10T11:33:11.192Z,8.90
2018-11-10T11:35:41.986Z,9.30
2018-11-10T11:38:12.013Z,9.07
2018-11-10T11:40:42.749Z,10.13
2018-11-10T11:43:12.144Z,12.30
2018-11-10T11:45:43.368Z,8.23
2018-11-10T11:48:13.606Z,10.90
2018-11-10T11:50:43.225Z,10.03
2018-11-10T11:53:13.857Z,8.97
2018-11-10T11:55:43.795Z,9.43
2018-11-10T11:58:14.284Z,9.20
2018-11-10T12:00:45.419Z,10.07
2018-11-10T12:03:15.723Z,9.80
2018-11-10T12:05:46.176Z,10.87
2018-11-10T12:08:16.876Z,11.03
2018-11-10T12:10:47.651Z,10.77
2018-11-10T12:13:17.515Z,11.50
2018-11-10T12:15:47.164Z,9.30
2018-11-10T12:18:16.536Z,11.57
2018-11-10T12:20:46.304Z,10.03
2018-11-10T12:23:17.219Z,9.10
2018-11-10T12:25:47.337Z,10.80
2018-11-10T12:28:16.254Z,10.07
2018-11-10T12:30:47.201Z,13.57
2018-11-10T12:33:17.381Z,8.90
2018-11-10T12:35:47.198Z,8.00
2018-11-10T12:38:17.179Z,8.13
2018-11-10T12:40:47.264Z,8.73
2018-11-10T12:43:17.226Z,9.37
2018-11-10T12:45:46.968Z,8.83
2018-11-10T12:48:16.278Z,9.93
2018-11-10T12:50:46.149Z,8.77
2018-11-10T12:53:15.788Z,10.53
2018-11-10T12:55:46.370Z,11.73
2018-11-10T12:58:16.408Z,10.17
2018-11-10T13:00:46.455Z,11.37
2018-11-10T13:03:16.366Z,9.13
2018-11-10T13:05:46.589Z,9.97
2018-11-10T13:08:16.628Z,10.23
2018-11-10T13:10:46.444Z,11.30
2018-11-10T13:13:17.165Z,10.47
2018-11-10T13:15:46.636Z,10.33
2018-11-10T13:18:16.652Z,9.93
2018-11-10T13:20:46.503Z,9.73
2018-11-10T13:23:16.602Z,9.30
2018-11-10T13:25:47.404Z,11.23
2018-11-10T13:28:17.525Z,12.47
2018-11-10T13:30:47.295Z,11.53
2018-11-10T13:33:16.619Z,12.37
2018-11-10T13:35:45.980Z,10.83
2018-11-10T13:38:15.799Z,10.27
2018-11-10T13:40:46.015Z,10.60
2018-11-10T13:43:15.840Z,10.70
2018-11-10T13:45:45.432Z,13.37
2018-11-10T13:48:15.496Z,11.27
2018-11-10T13:50:45.241Z,12.07
2018-11-10T13:53:15.281Z,12.27
2018-11-10T13:55:45.294Z,12.33
2018-11-10T13:58:14.971Z,10.77
2018-11-10T14:00:45.040Z,13.13
2018-11-10T14:03:14.770Z,13.77
2018-11-10T14:05:44.408Z,13.63
2018-11-10T14:08:14.159Z,13.57
2018-11-10T14:10:44.497Z,12.90
2018-11-10T14:13:16.123Z,12.17
2018-11-10T14:15:46.562Z,15.40
2018-11-10T14:18:16.043Z,13.00
2018-11-10T14:20:45.917Z,14.27
2018-11-10T14:23:15.709Z,10.77
2018-11-10T14:25:45.929Z,10.97
2018-11-10T14:28:15.803Z,11.77
2018-11-10T14:30:45.980Z,12.03
2018-11-10T14:33:15.879Z,14.13
2018-11-10T14:35:46.359Z,13.57
2018-11-10T14:38:16.102Z,14.40
2018-11-10T14:40:46.059Z,15.57
2018-11-10T14:43:15.866Z,14.50
2018-11-10T14:45:45.922Z,13.83
2018-11-10T14:48:15.978Z,16.50
2018-11-10T14:50:46.300Z,19.87
2018-11-10T14:53:16.783Z,17.17
2018-11-10T14:55:45.958Z,16.57
2018-11-10T14:58:15.227Z,15.77
2018-11-10T15:00:45.721Z,14.83
2018-11-10T15:03:15.412Z,16.70
2018-11-10T15:05:45.210Z,16.57
2018-11-10T15:08:15.791Z,14.53
2018-11-10T15:10:45.173Z,19.40
2018-11-10T15:13:15.022Z,18.27
2018-11-10T15:15:45.293Z,16.40
2018-11-10T15:18:16.729Z,20.57
2018-11-10T15:20:47.840Z,16.23
2018-11-10T15:23:18.166Z,17.80
2018-11-10T15:25:47.490Z,18.67
2018-11-10T15:28:18.403Z,16.87
2018-11-10T15:30:49.049Z,18.33
2018-11-10T15:33:19.140Z,18.63
2018-11-10T15:35:49.815Z,17.63
2018-11-10T15:38:19.705Z,19.97
2018-11-10T15:40:49.582Z,19.13
2018-11-10T15:43:20.430Z,20.57
2018-11-10T15:45:50.167Z,17.97
2018-11-10T15:48:20.150Z,19.60
2018-11-10T15:50:50.588Z,18.83
2018-11-10T15:53:20.448Z,19.53
2018-11-10T15:55:50.645Z,22.07
2018-11-10T15:58:26.414Z,22.80
2018-11-10T16:00:56.376Z,26.30
2018-11-10T16:03:26.404Z,20.60
2018-11-10T16:05:56.763Z,21.13
2018-11-10T16:08:26.990Z,22.23
2018-11-10T16:10:56.860Z,20.40
2018-11-10T16:13:26.931Z,21.67
2018-11-10T16:15:57.203Z,21.37
2018-11-10T16:18:27.534Z,23.17
2018-11-10T16:20:57.720Z,24.43
2018-11-10T16:23:27.421Z,26.13
2018-11-10T16:25:57.510Z,22.53
2018-11-10T16:28:27.513Z,22.13
2018-11-10T16:30:57.251Z,28.13
2018-11-10T16:33:26.955Z,21.63
2018-11-10T16:35:57.358Z,25.60
2018-11-10T16:38:27.773Z,22.17
2018-11-10T16:40:57.687Z,26.43
2018-11-10T16:43:28.154Z,21.70
2018-11-10T16:45:58.438Z,26.30
2018-11-10T16:48:28.312Z,22.97
2018-11-10T16:50:59.203Z,23.37
2018-11-10T16:53:29.096Z,23.57
2018-11-10T16:55:59.058Z,23.50
2018-11-10T16:58:29.080Z,21.23
2018-11-10T17:00:59.194Z,20.83
2018-11-10T17:03:29.160Z,22.67
2018-11-10T17:05:58.593Z,23.83
2018-11-10T17:08:28.147Z,23.77
2018-11-10T17:10:57.267Z,23.73
2018-11-10T17:13:27.978Z,22.57
2018-11-10T17:15:58.252Z,21.37
2018-11-10T17:18:29.634Z,21.83
2018-11-10T17:20:59.114Z,20.10
2018-11-10T17:23:29.043Z,22.77
2018-11-10T17:25:59.271Z,21.97
2018-11-10T17:28:29.434Z,19.20
2018-11-10T17:30:59.333Z,19.90
2018-11-10T17:33:30.862Z,19.03
2018-11-10T17:36:01.047Z,18.13
2018-11-10T17:38:31.355Z,20.87
2018-11-10T17:41:01.345Z,20.23
2018-11-10T17:43:30.844Z,17.13
2018-11-10T17:46:03.198Z,17.03
2018-11-10T17:48:33.740Z,18.70
2018-11-10T17:51:03.545Z,19.07
2018-11-10T17:53:35.341Z,20.03
2018-11-10T17:56:05.532Z,22.23
2018-11-10T17:58:35.654Z,20.13
2018-11-10T18:01:05.411Z,17.63
2018-11-10T18:03:36.254Z,17.50
2018-11-10T18:06:05.700Z,16.97
2018-11-10T18:08:41.063Z,18.60
2018-11-10T18:11:11.620Z,19.53
2018-11-10T18:13:42.020Z,22.53
2018-11-10T18:16:11.917Z,19.13
2018-11-10T18:18:42.274Z,21.27
2018-11-10T18:21:12.581Z,17.43
2018-11-10T18:23:42.180Z,19.90
2018-11-10T18:26:13.320Z,19.93
2018-11-10T18:28:43.248Z,18.43
2018-11-10T18:31:13.335Z,18.23
2018-11-10T18:33:43.584Z,15.53
2018-11-10T18:36:13.079Z,18.73
2018-11-10T18:38:43.175Z,16.77
2018-11-10T18:41:13.072Z,16.13
2018-11-10T18:43:42.929Z,16.57
2018-11-10T18:46:12.820Z,20.80
2018-11-10T18:48:42.223Z,15.43
2018-11-10T18:51:12.293Z,15.77
2018-11-10T18:53:43.181Z,13.83
2018-11-10T18:56:13.107Z,16.73
2018-11-10T18:58:42.777Z,15.47
2018-11-10T19:01:12.567Z,16.93
2018-11-10T19:03:41.794Z,14.57
2018-11-10T19:06:11.273Z,16.87
2018-11-10T19:08:41.169Z,13.20
2018-11-10T19:11:10.742Z,15.10
2018-11-10T19:13:40.872Z,15.53
2018-11-10T19:16:11.561Z,14.97
2018-11-10T19:18:41.320Z,14.93
2018-11-10T19:21:11.132Z,13.60
2018-11-10T19:23:41.242Z,15.93
2018-11-10T19:26:11.292Z,14.50
2018-11-10T19:28:41.457Z,12.90
2018-11-10T19:31:11.613Z,13.07
2018-11-10T19:33:42.128Z,14.80
2018-11-10T19:36:12.351Z,14.77
2018-11-10T19:38:41.923Z,13.67
2018-11-10T19:41:11.809Z,12.40
2018-11-10T19:43:42.096Z,14.83
2018-11-10T19:46:11.810Z,13.63
2018-11-10T19:48:41.311Z,12.60
2018-11-10T19:51:13.098Z,12.30
2018-11-10T19:53:43.088Z,11.93
2018-11-10T19:56:13.279Z,13.63
2018-11-10T19:58:42.818Z,11.77
2018-11-10T20:01:12.448Z,12.10
2018-11-10T20:03:42.482Z,20.27
2018-11-10T20:06:12.208Z,15.57
2018-11-10T20:08:41.818Z,16.57
2018-11-10T20:11:12.022Z,14.83
2018-11-10T20:13:42.278Z,12.33
2018-11-10T20:16:12.122Z,14.27
2018-11-10T20:18:41.172Z,12.43
2018-11-10T20:21:11.175Z,11.77
2018-11-10T20:23:42.834Z,11.43
2018-11-10T20:26:12.807Z,14.83
2018-11-10T20:28:42.996Z,13.77
2018-11-10T20:31:12.927Z,12.23
2018-11-10T20:33:43.009Z,12.10
2018-11-10T20:36:13.043Z,13.20
2018-11-10T20:38:43.056Z,12.13
2018-11-10T20:41:12.858Z,13.90
2018-11-10T20:43:42.638Z,15.40
2018-11-10T20:46:12.274Z,13.80
2018-11-10T20:48:42.634Z,13.77
2018-11-10T20:51:12.498Z,12.17
2018-11-10T20:53:42.416Z,15.03
2018-11-10T20:56:12.174Z,13.43
2018-11-10T20:58:41.472Z,14.23
2018-11-10T21:01:16.801Z,12.73
2018-11-10T21:03:46.924Z,21.43
2018-11-10T21:06:16.727Z,15.53
2018-11-10T21:08:47.152Z,18.30
2018-11-10T21:11:16.949Z,17.57
2018-11-10T21:13:46.433Z,13.63
2018-11-10T21:16:17.556Z,13.27
2018-11-10T21:18:47.452Z,11.80
2018-11-10T21:21:17.394Z,12.33
2018-11-10T21:23:46.332Z,15.17
2018-11-10T21:26:16.272Z,10.27
2018-11-10T21:28:46.873Z,11.23
2018-11-10T21:31:16.746Z,10.33
2018-11-10T21:33:46.691Z,10.53
2018-11-10T21:36:16.443Z,11.40
2018-11-10T21:38:45.561Z,10.50
2018-11-10T21:41:15.388Z,10.97
2018-11-10T21:43:45.347Z,10.03
2018-11-10T21:46:15.849Z,11.30
2018-11-10T21:48:45.712Z,12.10
2018-11-10T21:51:15.496Z,10.97
2018-11-10T21:53:45.742Z,10.23
2018-11-10T21:56:15.692Z,10.63
2018-11-10T21:58:45.223Z,11.47
2018-11-10T22:01:14.864Z,10.67
2018-11-10T22:03:44.834Z,10.00
2018-11-10T22:06:15.208Z,11.17
2018-11-10T22:08:45.237Z,9.73
2018-11-10T22:11:14.049Z,10.37
2018-11-10T22:13:44.688Z,10.77
2018-11-10T22:16:14.689Z,12.50
2018-11-10T22:18:44.178Z,10.97
2018-11-10T22:21:13.699Z,12.63
2018-11-10T22:23:44.036Z,15.57
2018-11-10T22:26:14.259Z,14.03
2018-11-10T22:28:43.779Z,11.93
2018-11-10T22:31:13.817Z,12.10
2018-11-10T22:33:43.672Z,12.00
2018-11-10T22:36:14.452Z,11.73
2018-11-10T22:38:44.137Z,11.13
2018-11-10T22:41:14.392Z,11.97
2018-11-10T22:43:44.270Z,14.47
2018-11-10T22:46:14.025Z,10.50
2018-11-10T22:48:43.956Z,11.70
2018-11-10T22:51:13.777Z,11.17
2018-11-10T22:53:43.481Z,10.90
2018-11-10T22:56:13.600Z,11.90
2018-11-10T22:58:43.414Z,10.97
2018-11-10T23:01:13.001Z,12.27
2018-11-10T23:03:43.057Z,12.67
2018-11-10T23:06:12.750Z,12.77
2018-11-10T23:08:42.933Z,10.97
2018-11-10T23:11:13.038Z,13.07
2018-11-10T23:13:43.076Z,11.37
2018-11-10T23:16:12.632Z,12.17
2018-11-10T23:18:42.271Z,11.73
2018-11-10T23:21:12.347Z,13.87
2018-11-10T23:23:42.591Z,14.10
2018-11-10T23:26:12.647Z,11.30
2018-11-10T23:28:42.979Z,11.57
2018-11-10T23:31:12.732Z,11.30
2018-11-10T23:33:42.445Z,11.23
2018-11-10T23:36:12.469Z,11.63
2018-11-10T23:38:43.650Z,13.57
2018-11-10T23:41:13.923Z,12.13
2018-11-10T23:43:45.015Z,11.07
2018-11-10T23:46:14.676Z,13.50
2018-11-10T23:48:44.810Z,12.23
2018-11-10T23:51:14.380Z,12.33
2018-11-10T23:53:44.745Z,13.80
2018-11-10T23:56:14.244Z,11.67
2018-11-10T23:58:43.569Z,14.40
